createdAt,value
2023-01-13T00:00:48.421Z,1.00
2023-01-13T00:03:15.247Z,1.27
2023-01-13T00:05:42.073Z,1.00
2023-01-13T00:08:08.788Z,1.00
2023-01-13T00:10:35.671Z,1.10
2023-01-13T00:13:04.422Z,1.17
2023-01-13T00:15:31.690Z,1.10
2023-01-13T00:17:58.359Z,0.85
2023-01-13T00:20:25.090Z,1.10
2023-01-13T00:22:55.308Z,1.10
2023-01-13T00:25:22.121Z,1.20
2023-01-13T00:27:48.745Z,1.15
2023-01-13T00:30:15.674Z,0.90
2023-01-13T00:32:42.363Z,1.15
2023-01-13T00:35:09.283Z,1.15
2023-01-13T00:37:38.103Z,1.10
2023-01-13T00:40:05.680Z,1.20
2023-01-13T00:42:55.078Z,1.05
2023-01-13T00:45:21.664Z,1.10
2023-01-13T00:47:48.320Z,1.10
2023-01-13T00:50:15.368Z,1.23
2023-01-13T00:52:42.479Z,0.93
2023-01-13T00:55:09.286Z,1.00
2023-01-13T00:57:36.322Z,1.00
2023-01-13T01:00:04.508Z,0.98
2023-01-13T01:02:31.447Z,0.98
2023-01-13T01:05:00.023Z,1.10
2023-01-13T01:07:26.660Z,1.00
2023-01-13T01:09:53.339Z,1.10
2023-01-13T01:12:19.912Z,1.17
2023-01-13T01:14:46.996Z,1.10
2023-01-13T01:17:13.927Z,1.20
2023-01-13T01:19:40.566Z,1.33
2023-01-13T01:22:09.560Z,1.10
2023-01-13T01:24:36.293Z,1.40
2023-01-13T01:27:02.991Z,1.20
2023-01-13T01:29:29.738Z,1.23
2023-01-13T01:32:00.248Z,1.38
2023-01-13T01:34:27.003Z,1.30
2023-01-13T01:36:53.829Z,1.48
2023-01-13T01:39:20.477Z,1.48
2023-01-13T01:42:07.016Z,1.30
2023-01-13T01:44:42.786Z,1.42
2023-01-13T01:47:12.147Z,1.50
2023-01-13T01:49:39.918Z,1.65
2023-01-13T01:52:37.134Z,1.60
2023-01-13T01:55:09.880Z,1.77
2023-01-13T01:58:00.139Z,1.60
2023-01-13T02:00:30.065Z,1.70
2023-01-13T02:02:57.275Z,1.83
2023-01-13T02:05:26.751Z,1.83
2023-01-13T02:07:56.847Z,2.03
2023-01-13T02:10:27.686Z,1.83
2023-01-13T02:12:58.940Z,2.33
2023-01-13T02:15:37.219Z,2.10
2023-01-13T02:18:15.884Z,2.08
2023-01-13T02:21:18.983Z,1.45
2023-01-13T02:24:28.773Z,1.80
2023-01-13T02:27:04.490Z,1.88
2023-01-13T02:30:13.269Z,2.15
2023-01-13T02:32:48.151Z,1.83
2023-01-13T02:35:20.584Z,2.20
2023-01-13T02:37:48.624Z,2.25
2023-01-13T02:40:38.239Z,2.25
2023-01-13T02:43:33.571Z,2.00
2023-01-13T02:46:10.464Z,1.92
2023-01-13T02:48:39.810Z,2.35
2023-01-13T02:51:13.306Z,2.40
2023-01-13T02:54:12.007Z,2.63
2023-01-13T02:56:44.615Z,2.60
2023-01-13T02:59:12.808Z,3.00
2023-01-13T03:01:40.220Z,2.45
2023-01-13T03:04:14.435Z,2.83
2023-01-13T03:06:57.722Z,2.58
2023-01-13T03:09:50.011Z,2.58
2023-01-13T03:12:31.894Z,2.75
2023-01-13T03:15:24.560Z,2.95
2023-01-13T03:18:13.146Z,2.72
2023-01-13T03:20:59.430Z,2.72
2023-01-13T03:23:44.065Z,3.20
2023-01-13T03:26:17.601Z,2.78
2023-01-13T03:28:58.515Z,2.67
2023-01-13T03:31:34.489Z,2.70
2023-01-13T03:34:14.036Z,2.45
2023-01-13T03:36:41.688Z,2.33
2023-01-13T03:39:15.375Z,2.55
2023-01-13T03:41:49.091Z,2.58
2023-01-13T03:44:31.947Z,2.92
2023-01-13T03:47:15.610Z,2.72
2023-01-13T03:49:46.151Z,3.20
2023-01-13T03:52:19.447Z,2.30
2023-01-13T03:54:55.393Z,2.70
2023-01-13T03:57:27.636Z,2.83
2023-01-13T03:59:59.085Z,3.30
2023-01-13T04:02:46.897Z,3.83
2023-01-13T04:05:15.140Z,3.28
2023-01-13T04:08:07.418Z,3.90
2023-01-13T04:10:44.658Z,4.00
2023-01-13T04:13:14.485Z,3.92
2023-01-13T04:15:44.246Z,3.55
2023-01-13T04:18:27.611Z,3.67
2023-01-13T04:20:57.074Z,4.45
2023-01-13T04:23:24.781Z,4.32
2023-01-13T04:25:52.130Z,4.20
2023-01-13T04:28:19.653Z,3.55
2023-01-13T04:30:46.924Z,4.15
2023-01-13T04:33:15.272Z,4.60
2023-01-13T04:35:42.074Z,4.43
2023-01-13T04:38:11.800Z,4.13
2023-01-13T04:40:39.451Z,3.90
2023-01-13T04:43:06.058Z,3.70
2023-01-13T04:45:32.747Z,4.40
2023-01-13T04:47:59.811Z,5.15
2023-01-13T04:50:26.647Z,4.10
2023-01-13T04:52:54.571Z,4.22
2023-01-13T04:55:23.301Z,3.45
2023-01-13T04:57:49.955Z,3.72
2023-01-13T05:00:18.692Z,3.42
2023-01-13T05:02:45.333Z,3.33
2023-01-13T05:05:11.938Z,4.13
2023-01-13T05:07:38.490Z,3.92
2023-01-13T05:10:05.548Z,4.45
2023-01-13T05:12:51.332Z,4.15
2023-01-13T05:15:36.910Z,3.80
2023-01-13T05:18:04.135Z,4.03
2023-01-13T05:20:30.742Z,3.88
2023-01-13T05:23:15.664Z,3.70
2023-01-13T05:25:44.505Z,4.15
2023-01-13T05:28:11.650Z,4.55
2023-01-13T05:30:43.645Z,3.60
2023-01-13T05:33:11.476Z,3.63
2023-01-13T05:35:39.851Z,3.58
2023-01-13T05:38:06.532Z,4.32
2023-01-13T05:40:51.990Z,4.15
2023-01-13T05:43:21.338Z,4.43
2023-01-13T05:45:59.122Z,4.25
2023-01-13T05:48:34.463Z,4.18
2023-01-13T05:51:02.525Z,4.10
2023-01-13T05:53:29.573Z,4.00
2023-01-13T05:55:56.362Z,3.95
2023-01-13T05:58:25.618Z,3.72
2023-01-13T06:00:53.129Z,4.20
2023-01-13T06:03:20.456Z,4.50
2023-01-13T06:05:48.067Z,4.18
2023-01-13T06:08:14.747Z,4.13
2023-01-13T06:10:41.570Z,4.03
2023-01-13T06:13:08.221Z,4.22
2023-01-13T06:15:34.812Z,4.28
2023-01-13T06:18:04.950Z,4.47
2023-01-13T06:20:32.247Z,4.07
2023-01-13T06:22:59.894Z,4.43
2023-01-13T06:25:44.845Z,4.30
2023-01-13T06:28:11.493Z,4.40
2023-01-13T06:31:00.637Z,4.47
2023-01-13T06:33:35.655Z,3.95
2023-01-13T06:36:07.291Z,4.28
2023-01-13T06:38:37.376Z,4.47
2023-01-13T06:41:06.372Z,3.60
2023-01-13T06:43:35.727Z,4.25
2023-01-13T06:46:03.242Z,4.30
2023-01-13T06:48:34.140Z,4.28
2023-01-13T06:51:02.195Z,4.22
2023-01-13T06:53:28.823Z,4.05
2023-01-13T06:55:55.455Z,3.75
2023-01-13T06:58:22.034Z,4.40
2023-01-13T07:00:51.273Z,4.82
2023-01-13T07:03:19.121Z,4.25
2023-01-13T07:05:56.314Z,4.40
2023-01-13T07:08:23.728Z,4.20
2023-01-13T07:10:51.310Z,4.40
2023-01-13T07:13:36.794Z,4.32
2023-01-13T07:16:06.111Z,4.95
2023-01-13T07:18:34.430Z,4.38
2023-01-13T07:21:06.466Z,4.55
2023-01-13T07:24:02.513Z,4.47
2023-01-13T07:26:29.287Z,4.57
2023-01-13T07:28:55.863Z,4.70
2023-01-13T07:31:33.145Z,4.55
2023-01-13T07:34:00.122Z,4.82
2023-01-13T07:36:29.553Z,4.25
2023-01-13T07:38:56.734Z,4.55
2023-01-13T07:41:42.317Z,4.72
2023-01-13T07:44:10.759Z,4.70
2023-01-13T07:46:38.311Z,5.15
2023-01-13T07:49:08.776Z,4.60
2023-01-13T07:51:49.318Z,4.22
2023-01-13T07:54:16.004Z,4.50
2023-01-13T07:56:42.826Z,4.43
2023-01-13T07:59:09.590Z,5.13
2023-01-13T08:01:36.279Z,4.55
2023-01-13T08:04:09.793Z,5.57
2023-01-13T08:06:36.735Z,4.45
2023-01-13T08:09:03.479Z,4.95
2023-01-13T08:11:30.311Z,4.85
2023-01-13T08:14:00.191Z,4.72
2023-01-13T08:16:26.906Z,4.65
2023-01-13T08:18:53.541Z,5.57
2023-01-13T08:21:23.213Z,4.50
2023-01-13T08:23:50.129Z,4.28
2023-01-13T08:26:18.434Z,5.07
2023-01-13T08:28:45.719Z,5.03
2023-01-13T08:31:16.107Z,4.28
2023-01-13T08:33:43.170Z,4.30
2023-01-13T08:36:12.405Z,4.63
2023-01-13T08:38:39.665Z,4.63
2023-01-13T08:41:14.965Z,5.28
2023-01-13T08:43:41.540Z,4.55
2023-01-13T08:46:16.149Z,4.22
2023-01-13T08:48:45.760Z,4.40
2023-01-13T08:51:12.612Z,4.53
2023-01-13T08:53:44.800Z,4.43
2023-01-13T08:56:12.511Z,5.47
2023-01-13T08:58:39.343Z,4.10
2023-01-13T09:01:07.149Z,4.80
2023-01-13T09:03:34.150Z,4.95
2023-01-13T09:06:04.419Z,4.65
2023-01-13T09:08:31.207Z,5.38
2023-01-13T09:11:00.045Z,4.10
2023-01-13T09:13:26.639Z,3.83
2023-01-13T09:15:57.091Z,4.43
2023-01-13T09:18:24.090Z,4.10
2023-01-13T09:20:53.583Z,4.35
2023-01-13T09:23:20.251Z,3.97
2023-01-13T09:25:47.115Z,4.72
2023-01-13T09:28:13.714Z,3.90
2023-01-13T09:30:40.425Z,3.83
2023-01-13T09:33:25.855Z,4.00
2023-01-13T09:35:52.802Z,3.60
2023-01-13T09:38:19.783Z,4.07
2023-01-13T09:40:49.086Z,4.00
2023-01-13T09:43:44.185Z,3.58
2023-01-13T09:46:39.824Z,3.80
2023-01-13T09:49:16.021Z,3.83
2023-01-13T09:51:48.850Z,3.00
2023-01-13T09:54:38.302Z,3.85
2023-01-13T09:57:12.138Z,3.67
2023-01-13T09:59:39.239Z,3.20
2023-01-13T10:02:24.476Z,3.05
2023-01-13T10:05:32.837Z,3.17
2023-01-13T10:08:05.247Z,3.25
2023-01-13T10:10:43.615Z,3.08
2023-01-13T10:13:21.195Z,3.03
2023-01-13T10:16:28.308Z,3.08
2023-01-13T10:19:13.957Z,3.42
2023-01-13T10:22:01.613Z,3.42
2023-01-13T10:24:28.632Z,3.33
2023-01-13T10:27:06.196Z,3.00
2023-01-13T10:29:38.100Z,2.90
2023-01-13T10:32:05.130Z,3.30
2023-01-13T10:34:33.034Z,2.90
2023-01-13T10:37:06.744Z,2.80
2023-01-13T10:39:45.918Z,3.10
2023-01-13T10:42:17.995Z,2.63
2023-01-13T10:44:56.218Z,2.45
2023-01-13T10:47:27.362Z,3.05
2023-01-13T10:50:06.359Z,2.65
2023-01-13T10:52:41.346Z,2.85
2023-01-13T10:55:25.527Z,2.45
2023-01-13T10:57:52.278Z,3.03
2023-01-13T11:00:28.367Z,5.60
2023-01-13T11:03:13.804Z,3.00
2023-01-13T11:05:41.109Z,2.70
2023-01-13T11:08:18.140Z,3.08
2023-01-13T11:10:48.410Z,2.83
2023-01-13T11:13:17.309Z,3.30
2023-01-13T11:16:08.843Z,3.13
2023-01-13T11:18:51.806Z,2.75
2023-01-13T11:21:30.237Z,3.13
2023-01-13T11:24:23.854Z,2.88
2023-01-13T11:27:02.003Z,2.90
2023-01-13T11:30:02.972Z,2.90
2023-01-13T11:32:35.613Z,2.92
2023-01-13T11:35:09.779Z,2.80
2023-01-13T11:37:42.067Z,3.45
2023-01-13T11:40:32.764Z,2.72
2023-01-13T11:43:29.776Z,2.97
2023-01-13T11:46:01.852Z,3.13
2023-01-13T11:48:32.545Z,3.05
2023-01-13T11:51:07.925Z,3.20
2023-01-13T11:53:43.799Z,3.00
2023-01-13T11:56:41.383Z,2.70
2023-01-13T11:59:17.016Z,2.78
2023-01-13T12:01:55.690Z,2.83
2023-01-13T12:04:31.959Z,3.10
2023-01-13T12:07:22.104Z,2.50
2023-01-13T12:10:05.094Z,2.60
2023-01-13T12:12:49.292Z,2.28
2023-01-13T12:15:22.615Z,3.08
2023-01-13T12:18:08.006Z,2.75
2023-01-13T12:21:13.221Z,2.30
2023-01-13T12:23:55.944Z,2.67
2023-01-13T12:26:23.800Z,2.50
2023-01-13T12:29:00.740Z,2.60
2023-01-13T12:31:28.470Z,2.88
2023-01-13T12:34:28.014Z,3.08
2023-01-13T12:37:16.644Z,2.67
2023-01-13T12:40:13.345Z,2.70
2023-01-13T12:43:14.114Z,3.05
2023-01-13T12:45:40.963Z,2.63
2023-01-13T12:48:49.386Z,2.92
2023-01-13T12:51:33.286Z,3.33
2023-01-13T12:54:02.013Z,3.22
2023-01-13T12:56:39.583Z,2.90
2023-01-13T12:59:38.610Z,3.00
2023-01-13T13:02:11.350Z,3.20
2023-01-13T13:04:47.977Z,2.90
2023-01-13T13:07:26.876Z,3.17
2023-01-13T13:09:59.636Z,3.20
2023-01-13T13:13:10.809Z,3.10
2023-01-13T13:15:37.657Z,3.10
2023-01-13T13:18:34.272Z,3.10
2023-01-13T13:21:09.866Z,3.15
2023-01-13T13:23:50.108Z,3.80
2023-01-13T13:26:20.168Z,3.08
2023-01-13T13:29:08.547Z,3.10
2023-01-13T13:31:38.476Z,3.08
2023-01-13T13:34:16.221Z,2.90
2023-01-13T13:36:51.146Z,2.95
2023-01-13T13:39:40.373Z,2.50
2023-01-13T13:42:57.024Z,3.17
2023-01-13T13:45:44.358Z,2.97
2023-01-13T13:48:30.639Z,3.13
2023-01-13T13:51:04.623Z,3.28
2023-01-13T13:53:39.333Z,2.90
2023-01-13T13:56:19.330Z,2.72
2023-01-13T13:58:47.502Z,2.63
2023-01-13T14:01:38.967Z,2.85
2023-01-13T14:04:25.993Z,2.60
2023-01-13T14:06:54.394Z,2.65
2023-01-13T14:09:22.485Z,2.70
2023-01-13T14:12:02.004Z,2.58
2023-01-13T14:14:28.957Z,2.70
2023-01-13T14:16:58.688Z,2.90
2023-01-13T14:19:30.456Z,2.95
2023-01-13T14:22:01.233Z,3.15
2023-01-13T14:24:29.846Z,3.75
2023-01-13T14:27:18.457Z,3.67
2023-01-13T14:29:45.804Z,3.42
2023-01-13T14:32:20.019Z,2.90
2023-01-13T14:34:47.122Z,2.88
2023-01-13T14:37:31.399Z,2.92
2023-01-13T14:39:58.467Z,3.20
2023-01-13T14:42:27.655Z,3.30
2023-01-13T14:44:56.321Z,3.42
2023-01-13T14:47:27.997Z,3.05
2023-01-13T14:50:06.176Z,3.13
2023-01-13T14:52:50.855Z,3.15
2023-01-13T14:55:23.076Z,3.00
2023-01-13T14:57:52.958Z,2.92
2023-01-13T15:00:23.543Z,3.10
2023-01-13T15:02:53.388Z,3.63
2023-01-13T15:05:20.053Z,3.30
2023-01-13T15:07:56.327Z,3.40
2023-01-13T15:10:33.240Z,3.22
2023-01-13T15:13:05.556Z,3.17
2023-01-13T15:15:33.859Z,3.10
2023-01-13T15:18:12.690Z,2.95
2023-01-13T15:23:07.077Z,3.00
2023-01-13T15:25:38.386Z,2.20
2023-01-13T15:28:06.659Z,2.03
2023-01-13T15:30:33.961Z,1.83
2023-01-13T15:33:00.616Z,1.75
2023-01-13T15:35:29.031Z,2.30
2023-01-13T15:37:57.068Z,2.30
2023-01-13T15:40:26.638Z,2.60
2023-01-13T15:43:13.593Z,2.15
2023-01-13T15:48:28.075Z,2.33
2023-01-13T15:50:54.710Z,2.22
2023-01-13T15:53:21.388Z,2.08
2023-01-13T15:55:51.825Z,1.85
2023-01-13T15:58:20.991Z,1.63
2023-01-13T16:00:47.702Z,1.80
2023-01-13T16:03:15.769Z,1.40
2023-01-13T16:05:43.644Z,1.55
2023-01-13T16:08:22.801Z,1.50
2023-01-13T16:10:51.017Z,1.90
2023-01-13T16:13:18.399Z,1.73
2023-01-13T16:15:49.948Z,1.75
2023-01-13T16:18:24.301Z,1.70
2023-01-13T16:20:57.605Z,1.60
2023-01-13T16:23:24.331Z,1.50
2023-01-13T16:25:51.366Z,1.95
2023-01-13T16:28:23.968Z,2.03
2023-01-13T16:30:53.878Z,1.65
2023-01-13T16:33:20.540Z,2.10
2023-01-13T16:36:09.658Z,1.63
2023-01-13T16:38:36.996Z,2.08
2023-01-13T16:41:03.814Z,2.15
2023-01-13T16:43:30.672Z,2.30
2023-01-13T16:45:59.518Z,2.20
2023-01-13T16:48:26.328Z,1.80
2023-01-13T16:50:56.218Z,1.73
2023-01-13T16:53:28.049Z,1.70
2023-01-13T16:55:54.886Z,1.70
2023-01-13T16:58:24.316Z,1.80
2023-01-13T17:00:52.926Z,1.80
2023-01-13T17:03:22.299Z,1.75
2023-01-13T17:05:48.979Z,1.80
2023-01-13T17:08:20.058Z,1.98
2023-01-13T17:10:47.141Z,1.95
2023-01-13T17:13:17.064Z,1.85
2023-01-13T17:15:45.244Z,1.70
2023-01-13T17:18:13.363Z,2.00
2023-01-13T17:20:42.864Z,1.83
2023-01-13T17:23:09.535Z,2.00
2023-01-13T17:25:36.367Z,1.90
2023-01-13T17:28:05.362Z,2.55
2023-01-13T17:30:32.349Z,2.30
2023-01-13T17:32:59.351Z,1.88
2023-01-13T17:35:26.040Z,2.17
2023-01-13T17:37:53.687Z,2.17
2023-01-13T17:40:20.583Z,1.67
2023-01-13T17:42:47.256Z,2.35
2023-01-13T17:45:14.022Z,2.05
2023-01-13T17:47:40.553Z,1.98
2023-01-13T17:50:07.605Z,2.60
2023-01-13T17:52:34.589Z,2.20
2023-01-13T17:55:01.170Z,2.35
2023-01-13T17:57:27.984Z,2.50
2023-01-13T17:59:54.746Z,2.03
2023-01-13T18:02:21.459Z,2.28
2023-01-13T18:04:48.211Z,2.28
2023-01-13T18:07:14.801Z,2.53
2023-01-13T18:09:41.359Z,2.00
2023-01-13T18:12:08.046Z,1.83
2023-01-13T18:14:35.014Z,2.17
2023-01-13T18:17:04.824Z,1.90
2023-01-13T18:19:50.025Z,2.08
2023-01-13T18:22:35.108Z,2.08
2023-01-13T18:25:21.851Z,2.10
2023-01-13T18:30:15.560Z,2.15
2023-01-13T18:32:42.310Z,1.92
2023-01-13T18:35:10.838Z,1.80
2023-01-13T18:37:40.321Z,1.80
2023-01-13T18:40:09.461Z,2.00
2023-01-13T18:42:52.133Z,1.80
2023-01-13T18:45:25.039Z,1.50
2023-01-13T18:47:52.981Z,1.40
2023-01-13T18:50:23.194Z,1.58
2023-01-13T18:52:50.153Z,1.50
2023-01-13T18:55:17.373Z,1.75
2023-01-13T18:57:44.031Z,1.80
2023-01-13T19:00:14.957Z,1.65
2023-01-13T19:02:44.338Z,1.70
2023-01-13T19:05:11.168Z,2.00
2023-01-13T19:07:38.043Z,1.65
2023-01-13T19:10:06.582Z,1.60
2023-01-13T19:12:33.773Z,1.50
2023-01-13T19:15:01.579Z,1.63
2023-01-13T19:17:33.088Z,1.60
2023-01-13T19:20:00.047Z,1.70
2023-01-13T19:22:32.719Z,1.80
2023-01-13T19:25:01.052Z,1.52
2023-01-13T19:27:28.671Z,1.48
2023-01-13T19:30:00.664Z,1.50
2023-01-13T19:32:28.692Z,2.05
2023-01-13T19:34:59.117Z,1.70
2023-01-13T19:37:30.118Z,1.60
2023-01-13T19:39:58.454Z,1.30
2023-01-13T19:42:43.729Z,1.70
2023-01-13T19:45:37.073Z,1.90
2023-01-13T19:48:05.544Z,1.77
2023-01-13T19:50:36.370Z,1.80
2023-01-13T19:53:03.415Z,1.92
2023-01-13T19:55:31.852Z,2.17
2023-01-13T19:57:58.999Z,2.10
2023-01-13T20:00:25.650Z,2.17
2023-01-13T20:02:53.295Z,2.03
2023-01-13T20:05:22.848Z,2.30
2023-01-13T20:07:50.885Z,1.90
2023-01-13T20:10:20.315Z,2.08
2023-01-13T20:12:47.054Z,2.10
2023-01-13T20:15:14.324Z,1.95
2023-01-13T20:17:41.589Z,2.03
2023-01-13T20:20:09.972Z,1.63
2023-01-13T20:22:40.327Z,2.10
2023-01-13T20:25:08.902Z,2.40
2023-01-13T20:27:36.555Z,2.95
2023-01-13T20:30:04.876Z,2.65
2023-01-13T20:32:31.437Z,2.67
2023-01-13T20:34:58.033Z,2.63
2023-01-13T20:37:24.900Z,2.78
2023-01-13T20:39:51.550Z,2.22
2023-01-13T20:42:30.366Z,2.53
2023-01-13T20:44:58.745Z,2.15
2023-01-13T20:47:26.432Z,2.30
2023-01-13T20:49:53.468Z,1.88
2023-01-13T20:52:20.350Z,1.95
2023-01-13T20:54:47.116Z,1.67
2023-01-13T20:57:13.897Z,1.65
2023-01-13T20:59:40.660Z,1.45
2023-01-13T21:02:13.082Z,1.52
2023-01-13T21:04:40.316Z,1.80
2023-01-13T21:07:07.081Z,1.80
2023-01-13T21:09:33.742Z,1.75
2023-01-13T21:12:19.008Z,1.90
2023-01-13T21:15:04.268Z,2.28
2023-01-13T21:17:49.583Z,2.53
2023-01-13T21:20:16.566Z,2.10
2023-01-13T21:22:48.028Z,1.80
2023-01-13T21:25:16.473Z,2.15
2023-01-13T21:27:46.000Z,2.28
2023-01-13T21:30:14.875Z,2.30
2023-01-13T21:32:42.678Z,2.45
2023-01-13T21:35:10.227Z,2.60
2023-01-13T21:37:38.150Z,2.10
2023-01-13T21:40:07.233Z,2.75
2023-01-13T21:42:52.803Z,2.83
2023-01-13T21:45:38.118Z,2.55
2023-01-13T21:48:05.130Z,2.17
2023-01-13T21:50:35.828Z,2.33
2023-01-13T21:53:02.424Z,1.80
2023-01-13T21:55:29.369Z,2.83
2023-01-13T21:57:57.580Z,2.40
2023-01-13T22:00:27.066Z,2.35
2023-01-13T22:02:54.098Z,2.70
2023-01-13T22:05:22.509Z,2.55
2023-01-13T22:07:50.002Z,2.13
2023-01-13T22:10:25.763Z,2.45
2023-01-13T22:12:57.376Z,2.95
2023-01-13T22:15:28.405Z,2.40
2023-01-13T22:17:55.755Z,2.40
2023-01-13T22:20:22.838Z,2.38
2023-01-13T22:22:49.818Z,2.05
2023-01-13T22:25:17.212Z,2.67
2023-01-13T22:27:44.903Z,2.22
2023-01-13T22:30:13.799Z,2.38
2023-01-13T22:32:40.458Z,2.20
2023-01-13T22:35:08.440Z,2.28
2023-01-13T22:37:35.471Z,2.60
2023-01-13T22:40:02.704Z,2.53
2023-01-13T22:42:29.293Z,2.60
2023-01-13T22:44:56.052Z,2.53
2023-01-13T22:47:22.799Z,2.08
2023-01-13T22:49:49.545Z,2.80
2023-01-13T22:52:17.283Z,2.17
2023-01-13T22:54:44.270Z,2.10
2023-01-13T22:57:11.019Z,2.65
2023-01-13T22:59:37.619Z,2.47
2023-01-13T23:02:04.196Z,2.30
2023-01-13T23:04:30.926Z,2.20
2023-01-13T23:06:59.112Z,3.03
2023-01-13T23:09:25.818Z,3.03
2023-01-13T23:11:53.581Z,3.30
2023-01-13T23:14:21.196Z,2.30
2023-01-13T23:16:47.836Z,1.75
2023-01-13T23:19:14.472Z,2.35
2023-01-13T23:21:41.233Z,2.40
2023-01-13T23:24:09.305Z,2.20
2023-01-13T23:26:36.581Z,2.20
2023-01-13T23:29:07.064Z,2.20
2023-01-13T23:31:36.019Z,1.98
2023-01-13T23:34:02.690Z,2.00
2023-01-13T23:36:29.798Z,1.88
2023-01-13T23:38:58.949Z,1.95
2023-01-13T23:41:26.960Z,2.13
2023-01-13T23:44:02.601Z,2.20
2023-01-13T23:46:31.115Z,2.78
2023-01-13T23:48:57.749Z,2.60
2023-01-13T23:51:26.297Z,2.20
2023-01-13T23:53:53.876Z,2.53
2023-01-13T23:56:22.990Z,2.85
2023-01-13T23:58:50.189Z,2.60
